Time;durP1;ratioP1;P1;durP2;ratioP2;P2;SDS_P1;SDS_P2;PMS_P1;PMS_P2;Temp;Humidity;BMP_temperature;BMP_pressure;BME280_temperature;BME280_humidity;BME280_pressure;Samples;Min_cycle;Max_cycle;Signal;HPM_P1;HPM_P2
2023/08/04 00:02:05;;;;;;;9.07;5.25;;;14.30;99.90;;;;;;5115220;28;20169;-49
2023/08/04 00:04:31;;;;;;;8.40;4.80;;;14.30;99.90;;;;;;5115238;28;20225;-51
2023/08/04 00:06:56;;;;;;;10.20;5.20;;;14.20;99.90;;;;;;5115149;28;20256;-52
2023/08/04 00:09:22;;;;;;;8.98;5.03;;;14.20;99.90;;;;;;5114837;28;20645;-51
2023/08/04 00:11:48;;;;;;;8.20;4.65;;;14.20;99.90;;;;;;5115045;28;20180;-50
2023/08/04 00:14:13;;;;;;;8.40;4.70;;;14.10;99.90;;;;;;5115181;28;20184;-50
2023/08/04 00:16:39;;;;;;;6.45;5.07;;;14.00;99.90;;;;;;5114916;28;20181;-50
2023/08/04 00:19:05;;;;;;;6.68;5.18;;;14.00;99.90;;;;;;5114827;28;20232;-52
2023/08/04 00:21:30;;;;;;;8.45;5.25;;;14.00;99.90;;;;;;5114887;28;20192;-52
2023/08/04 00:23:59;;;;;;;6.35;5.28;;;14.00;99.90;;;;;;5114461;28;20657;-51
2023/08/04 00:26:25;;;;;;;12.23;5.85;;;14.00;99.90;;;;;;5114790;28;20226;-50
2023/08/04 00:28:50;;;;;;;8.73;5.80;;;14.00;99.90;;;;;;5114719;28;20173;-50
2023/08/04 00:31:16;;;;;;;7.28;5.82;;;14.00;99.90;;;;;;5114661;28;20573;-51
2023/08/04 00:33:42;;;;;;;8.68;6.13;;;14.00;99.90;;;;;;5114671;28;20197;-49
2023/08/04 00:36:07;;;;;;;8.40;5.70;;;14.10;99.90;;;;;;5114518;28;20189;-51
2023/08/04 00:38:33;;;;;;;12.50;6.13;;;14.10;99.90;;;;;;5114601;28;20587;-49
2023/08/04 00:40:59;;;;;;;10.90;6.75;;;14.10;99.90;;;;;;5114508;28;20184;-52
2023/08/04 00:43:24;;;;;;;9.07;6.30;;;14.20;99.90;;;;;;5114035;28;20622;-48
2023/08/04 00:45:50;;;;;;;10.93;6.63;;;14.20;99.90;;;;;;5114753;28;20295;-48
2023/08/04 00:48:16;;;;;;;12.00;6.88;;;14.20;99.90;;;;;;5114253;28;20235;-49
2023/08/04 00:50:42;;;;;;;9.85;6.45;;;14.20;99.90;;;;;;5114163;28;20193;-49
2023/08/04 00:53:09;;;;;;;10.38;6.57;;;14.20;99.90;;;;;;5114344;28;20177;-51
2023/08/04 00:55:35;;;;;;;8.65;6.28;;;14.20;99.90;;;;;;5114264;28;20204;-54
2023/08/04 00:58:03;;;;;;;8.93;6.32;;;14.10;99.90;;;;;;5114296;28;20173;-52
2023/08/04 01:00:28;;;;;;;10.95;6.47;;;14.10;99.90;;;;;;5114277;28;20176;-48
2023/08/04 01:02:54;;;;;;;9.10;6.65;;;14.10;99.90;;;;;;5114195;28;20173;-51
2023/08/04 01:05:22;;;;;;;11.85;7.40;;;14.10;99.90;;;;;;5114158;28;20173;-50
2023/08/04 01:08:25;;;;;;;11.80;7.22;;;14.00;99.90;;;;;;5114165;28;20165;-50
2023/08/04 01:11:03;;;;;;;9.70;7.15;;;14.10;99.90;;;;;;5114138;28;20157;-50
2023/08/04 01:13:29;;;;;;;10.32;7.43;;;14.20;99.90;;;;;;5114193;28;20161;-49
2023/08/04 01:15:56;;;;;;;12.35;7.60;;;14.10;99.90;;;;;;5114002;28;20203;-52
2023/08/04 01:18:22;;;;;;;10.98;7.28;;;14.10;99.90;;;;;;5113817;28;20180;-48
2023/08/04 01:20:50;;;;;;;10.38;7.45;;;14.10;99.90;;;;;;5114130;28;20158;-52
2023/08/04 01:23:16;;;;;;;10.95;7.28;;;14.10;99.90;;;;;;5113968;28;20181;-52
2023/08/04 01:25:42;;;;;;;11.05;7.38;;;14.20;99.90;;;;;;5113953;28;20177;-52
2023/08/04 01:28:11;;;;;;;12.10;8.18;;;14.20;99.90;;;;;;5113957;28;20205;-53
2023/08/04 01:30:39;;;;;;;12.98;8.48;;;14.20;99.90;;;;;;5113899;28;20166;-50
2023/08/04 01:33:04;;;;;;;12.05;8.60;;;14.30;99.90;;;;;;5113830;28;20181;-50
2023/08/04 01:35:30;;;;;;;12.52;8.65;;;14.30;99.90;;;;;;5113776;28;20251;-48
2023/08/04 01:37:56;;;;;;;10.40;7.90;;;14.30;99.90;;;;;;5113830;28;20181;-50
2023/08/04 01:40:21;;;;;;;11.35;8.32;;;14.30;99.90;;;;;;5113704;28;20176;-50
2023/08/04 01:42:47;;;;;;;10.90;8.30;;;14.30;99.90;;;;;;5113515;28;20173;-49
2023/08/04 01:45:13;;;;;;;11.98;8.10;;;14.40;99.90;;;;;;5114028;28;20181;-52
2023/08/04 01:47:39;;;;;;;11.32;8.40;;;14.50;99.90;;;;;;5113721;28;20626;-52
2023/08/04 01:50:09;;;;;;;11.05;8.18;;;14.50;99.90;;;;;;5113673;28;20181;-48
2023/08/04 01:52:35;;;;;;;13.27;9.10;;;14.50;99.90;;;;;;5113983;28;20169;-50
2023/08/04 01:55:02;;;;;;;13.05;8.90;;;14.50;99.90;;;;;;5113894;28;20201;-53
2023/08/04 01:57:27;;;;;;;11.52;9.07;;;14.50;99.90;;;;;;5117693;28;20209;-49
2023/08/04 01:59:53;;;;;;;11.68;8.43;;;14.40;99.90;;;;;;5117613;28;20254;-48
2023/08/04 02:02:19;;;;;;;9.13;8.00;;;14.40;99.90;;;;;;5117604;28;20165;-49
2023/08/04 02:04:44;;;;;;;12.48;8.75;;;14.40;99.90;;;;;;5117565;28;20181;-50
2023/08/04 02:07:10;;;;;;;12.73;8.15;;;14.40;99.90;;;;;;5117453;28;20173;-51
2023/08/04 02:09:35;;;;;;;10.30;8.35;;;14.40;99.90;;;;;;5117158;28;20277;-48
2023/08/04 02:12:01;;;;;;;13.05;8.70;;;14.40;99.90;;;;;;5117148;28;20176;-50
2023/08/04 02:14:29;;;;;;;11.82;8.38;;;14.40;99.90;;;;;;5117208;27;20213;-50
2023/08/04 02:16:56;;;;;;;12.75;8.50;;;14.40;99.90;;;;;;5117307;28;20232;-52
2023/08/04 02:19:22;;;;;;;9.98;7.85;;;14.40;99.90;;;;;;5117113;28;20256;-48
2023/08/04 02:21:51;;;;;;;10.02;7.78;;;14.40;99.90;;;;;;5117187;28;20205;-47
2023/08/04 02:24:17;;;;;;;8.32;7.35;;;14.30;99.90;;;;;;5117190;28;20222;-52
2023/08/04 02:26:45;;;;;;;11.93;7.60;;;14.30;99.90;;;;;;5117088;28;20177;-49
2023/08/04 02:29:12;;;;;;;10.07;7.90;;;14.30;99.90;;;;;;5117105;28;20177;-51
2023/08/04 02:31:38;;;;;;;10.15;7.70;;;14.30;99.90;;;;;;5117023;28;20192;-51
2023/08/04 02:34:04;;;;;;;9.27;7.28;;;14.30;99.90;;;;;;5116717;27;20200;-48
2023/08/04 02:36:30;;;;;;;13.25;8.27;;;14.40;99.90;;;;;;5116863;28;20617;-49
2023/08/04 02:38:56;;;;;;;8.23;6.97;;;14.50;99.90;;;;;;5116878;28;20181;-48
2023/08/04 02:41:21;;;;;;;10.63;6.93;;;14.50;99.90;;;;;;5116916;28;20260;-52
2023/08/04 02:43:47;;;;;;;9.07;6.38;;;14.50;99.90;;;;;;5116789;28;20179;-53
2023/08/04 02:46:13;;;;;;;8.27;6.20;;;14.50;99.90;;;;;;5116536;28;20169;-51
2023/08/04 02:48:39;;;;;;;8.50;5.93;;;14.60;99.90;;;;;;5116745;28;20590;-52
2023/08/04 02:51:05;;;;;;;12.30;6.18;;;14.60;99.90;;;;;;5116732;28;20174;-51
2023/08/04 02:53:32;;;;;;;8.65;5.53;;;14.60;99.90;;;;;;5116367;28;20211;-49
2023/08/04 02:55:58;;;;;;;8.07;6.05;;;14.60;99.90;;;;;;5116543;28;20201;-48
2023/08/04 02:58:25;;;;;;;7.22;5.38;;;14.70;99.90;;;;;;5116571;28;20584;-51
2023/08/04 03:00:51;;;;;;;9.55;5.38;;;14.70;99.90;;;;;;5116532;28;20174;-49
2023/08/04 03:03:18;;;;;;;9.05;5.40;;;14.80;99.90;;;;;;5116485;28;20626;-48
2023/08/04 03:05:44;;;;;;;9.57;5.57;;;14.80;99.90;;;;;;5116011;28;20190;-52
2023/08/04 03:08:09;;;;;;;8.15;5.65;;;14.80;99.90;;;;;;5116291;28;20166;-50
2023/08/04 03:10:40;;;;;;;6.97;5.07;;;14.80;99.90;;;;;;5115137;28;20200;-52
2023/08/04 03:13:05;;;;;;;6.53;5.03;;;14.80;99.90;;;;;;5116312;28;20177;-49
2023/08/04 03:15:31;;;;;;;8.07;5.03;;;14.80;99.90;;;;;;5116161;28;20670;-49
2023/08/04 03:17:57;;;;;;;8.43;5.30;;;14.80;99.90;;;;;;5116136;28;20170;-51
2023/08/04 03:20:22;;;;;;;7.78;5.38;;;14.90;99.90;;;;;;5115720;28;20225;-49
2023/08/04 03:22:48;;;;;;;7.68;5.35;;;14.90;99.90;;;;;;5116014;28;20273;-51
2023/08/04 03:25:14;;;;;;;8.30;5.30;;;15.00;99.90;;;;;;5116047;28;20638;-50
2023/08/04 03:27:39;;;;;;;12.18;5.88;;;15.00;99.90;;;;;;5115736;28;20181;-52
2023/08/04 03:30:06;;;;;;;7.97;5.65;;;15.00;99.90;;;;;;5115961;28;20694;-51
2023/08/04 03:32:31;;;;;;;8.43;5.20;;;15.00;99.90;;;;;;5115847;28;20177;-51
2023/08/04 03:34:57;;;;;;;7.07;5.13;;;15.00;99.90;;;;;;5115961;28;20220;-48
2023/08/04 03:37:22;;;;;;;6.72;5.40;;;15.00;99.90;;;;;;5116059;28;20626;-48
2023/08/04 03:39:48;;;;;;;9.88;5.32;;;14.90;99.90;;;;;;5115763;28;20173;-47
2023/08/04 03:42:14;;;;;;;7.05;5.18;;;15.00;99.90;;;;;;5115712;28;20177;-53
2023/08/04 03:44:40;;;;;;;8.93;5.55;;;15.00;99.90;;;;;;5115654;28;20169;-51
2023/08/04 03:47:06;;;;;;;9.35;5.72;;;15.00;99.90;;;;;;5115312;28;20511;-48
2023/08/04 03:49:31;;;;;;;8.43;5.75;;;14.90;99.90;;;;;;5115591;28;20177;-52
2023/08/04 03:51:57;;;;;;;8.55;5.70;;;14.90;99.90;;;;;;5115534;28;20503;-50
2023/08/04 03:54:22;;;;;;;10.00;6.10;;;14.90;99.90;;;;;;5115105;28;20169;-52
2023/08/04 03:56:48;;;;;;;7.70;5.97;;;14.90;99.90;;;;;;5115439;28;20194;-52
2023/08/04 03:59:14;;;;;;;9.80;6.45;;;14.70;99.90;;;;;;5115100;28;20173;-48
2023/08/04 04:01:40;;;;;;;11.20;7.22;;;14.80;99.90;;;;;;5115350;28;20710;-49
2023/08/04 04:04:05;;;;;;;10.70;7.47;;;14.70;99.90;;;;;;5115237;28;20177;-49
2023/08/04 04:06:31;;;;;;;9.27;7.68;;;14.70;99.90;;;;;;5115249;28;20166;-51
2023/08/04 04:08:56;;;;;;;10.85;8.52;;;14.70;99.90;;;;;;5115190;28;20203;-50
2023/08/04 04:11:22;;;;;;;9.23;8.30;;;14.70;99.90;;;;;;5115134;28;20222;-49
2023/08/04 04:13:48;;;;;;;10.93;8.10;;;14.70;99.90;;;;;;5115069;28;20234;-50
2023/08/04 04:16:13;;;;;;;10.20;8.57;;;14.70;99.90;;;;;;5114966;28;20205;-53
2023/08/04 04:18:39;;;;;;;11.85;8.98;;;14.70;99.90;;;;;;5113964;28;20217;-51
2023/08/04 04:21:04;;;;;;;11.50;8.38;;;14.70;99.90;;;;;;5114702;28;20576;-50
2023/08/04 04:23:30;;;;;;;12.30;9.05;;;14.70;99.90;;;;;;5112761;28;20181;-49
2023/08/04 04:25:56;;;;;;;12.50;9.30;;;14.70;99.90;;;;;;5113901;28;20264;-52
2023/08/04 04:28:21;;;;;;;13.07;9.20;;;14.60;99.90;;;;;;5114480;28;20177;-51
2023/08/04 04:30:48;;;;;;;11.35;8.95;;;14.60;99.90;;;;;;5114689;28;20211;-51
2023/08/04 04:33:13;;;;;;;10.93;9.82;;;14.60;99.90;;;;;;5114435;27;20686;-49
2023/08/04 04:35:46;;;;;;;12.00;8.95;;;14.60;99.90;;;;;;5114600;28;20291;-50
2023/08/04 04:38:12;;;;;;;10.93;9.35;;;14.50;99.90;;;;;;5114701;28;20164;-48
2023/08/04 04:40:37;;;;;;;14.27;9.60;;;14.60;99.90;;;;;;5114607;28;20173;-50
2023/08/04 04:43:03;;;;;;;12.25;9.05;;;14.50;99.90;;;;;;5114223;28;20177;-52
2023/08/04 04:45:28;;;;;;;12.15;9.63;;;14.50;99.90;;;;;;5114214;28;20199;-52
2023/08/04 04:47:55;;;;;;;12.65;9.57;;;14.60;99.90;;;;;;5114745;28;20230;-51
2023/08/04 04:50:21;;;;;;;13.35;10.00;;;14.60;99.90;;;;;;5114424;28;20181;-48
2023/08/04 04:52:46;;;;;;;13.25;9.82;;;14.70;99.90;;;;;;5114371;28;20568;-49
2023/08/04 04:55:12;;;;;;;11.63;9.40;;;14.80;99.90;;;;;;5114021;28;20208;-50
2023/08/04 04:57:40;;;;;;;16.20;9.52;;;14.80;99.90;;;;;;5114299;28;20176;-50
2023/08/04 05:00:06;;;;;;;10.55;9.25;;;14.80;99.90;;;;;;5113919;28;20577;-49
2023/08/04 05:02:32;;;;;;;13.07;9.57;;;14.90;99.90;;;;;;5114234;28;20252;-47
2023/08/04 05:04:57;;;;;;;11.32;9.52;;;14.80;99.90;;;;;;5113921;28;20680;-50
2023/08/04 05:07:23;;;;;;;12.60;10.27;;;14.90;99.90;;;;;;5114152;28;20253;-53
2023/08/04 05:09:49;;;;;;;11.95;9.43;;;14.90;99.90;;;;;;5113823;28;20260;-53
2023/08/04 05:12:14;;;;;;;11.45;9.77;;;15.00;99.90;;;;;;5113662;28;20210;-47
2023/08/04 05:14:40;;;;;;;11.60;10.15;;;15.00;99.90;;;;;;5113444;28;20201;-49
2023/08/04 05:17:06;;;;;;;13.80;9.80;;;15.10;99.90;;;;;;5113459;28;20530;-53
2023/08/04 05:19:32;;;;;;;12.32;10.07;;;15.20;99.90;;;;;;5113678;28;20228;-50
2023/08/04 05:21:58;;;;;;;12.70;8.93;;;15.20;99.90;;;;;;5114024;28;20169;-50
2023/08/04 05:24:23;;;;;;;11.45;9.48;;;15.30;99.90;;;;;;5113672;28;20176;-49
2023/08/04 05:26:49;;;;;;;12.57;8.50;;;15.40;99.90;;;;;;5113670;28;20177;-52
2023/08/04 05:29:14;;;;;;;15.02;8.45;;;15.50;99.90;;;;;;5114634;28;20169;-52
2023/08/04 05:31:40;;;;;;;12.50;8.10;;;15.50;99.90;;;;;;5117096;28;20292;-52
2023/08/04 05:34:06;;;;;;;11.00;8.23;;;15.60;99.90;;;;;;5118127;28;20169;-50
2023/08/04 05:36:31;;;;;;;11.68;8.32;;;15.70;99.90;;;;;;5118094;28;20615;-50
2023/08/04 05:38:57;;;;;;;11.90;8.27;;;15.70;99.90;;;;;;5117365;28;20252;-53
2023/08/04 05:41:22;;;;;;;9.65;7.93;;;15.70;99.90;;;;;;5111659;28;20197;-49
2023/08/04 05:43:48;;;;;;;11.95;7.72;;;15.80;99.90;;;;;;5118049;28;20204;-51
2023/08/04 05:46:15;;;;;;;12.07;7.80;;;16.00;99.90;;;;;;5117634;28;20225;-47
2023/08/04 05:48:41;;;;;;;12.13;7.55;;;16.00;99.90;;;;;;5117918;28;20164;-50
2023/08/04 05:51:07;;;;;;;10.07;7.13;;;16.20;99.90;;;;;;5117766;28;20555;-51
2023/08/04 05:53:33;;;;;;;8.65;6.50;;;16.20;99.90;;;;;;5117849;28;20184;-49
2023/08/04 05:55:59;;;;;;;7.63;5.57;;;16.30;99.90;;;;;;5117566;28;20193;-52
2023/08/04 05:58:25;;;;;;;8.95;5.97;;;16.20;99.90;;;;;;5117408;28;20177;-50
2023/08/04 06:00:51;;;;;;;6.72;6.00;;;16.20;99.90;;;;;;5117439;28;20248;-49
2023/08/04 06:03:17;;;;;;;7.90;5.40;;;16.30;99.90;;;;;;5117128;28;20162;-51
2023/08/04 06:05:43;;;;;;;9.70;5.95;;;16.30;99.90;;;;;;5117401;28;20191;-49
2023/08/04 06:08:10;;;;;;;8.50;5.60;;;16.20;99.90;;;;;;5117566;28;20173;-50
2023/08/04 06:10:36;;;;;;;6.70;5.22;;;16.10;99.90;;;;;;5117147;28;20182;-52
2023/08/04 06:13:02;;;;;;;5.40;4.75;;;16.00;99.90;;;;;;5117396;28;20179;-50
2023/08/04 06:15:28;;;;;;;5.00;4.10;;;16.00;99.90;;;;;;5117243;28;20196;-49
2023/08/04 06:17:54;;;;;;;5.78;4.32;;;16.00;99.90;;;;;;5116894;28;20234;-51
2023/08/04 06:20:20;;;;;;;5.90;4.78;;;15.90;99.90;;;;;;5116871;28;20224;-49
2023/08/04 06:22:48;;;;;;;7.28;4.65;;;15.90;99.90;;;;;;5116750;28;20169;-49
2023/08/04 06:25:14;;;;;;;5.68;4.40;;;15.90;99.90;;;;;;5116883;28;20383;-49
2023/08/04 06:27:40;;;;;;;6.05;4.50;;;15.90;99.90;;;;;;5116543;28;20264;-50
2023/08/04 06:30:07;;;;;;;5.18;4.20;;;15.80;99.90;;;;;;5115920;28;20173;-50
2023/08/04 06:32:33;;;;;;;4.68;4.22;;;15.80;99.90;;;;;;5116571;28;20174;-49
2023/08/04 06:34:58;;;;;;;6.57;3.97;;;15.80;99.90;;;;;;5116699;28;20201;-48
2023/08/04 06:37:24;;;;;;;4.32;3.80;;;15.90;99.90;;;;;;5116858;28;20209;-48
2023/08/04 06:39:50;;;;;;;3.65;3.35;;;15.90;99.90;;;;;;5111752;27;20181;-52
2023/08/04 06:42:16;;;;;;;4.38;3.60;;;16.00;99.90;;;;;;5113405;28;20256;-51
2023/08/04 06:44:42;;;;;;;4.65;3.60;;;16.00;99.90;;;;;;5114889;28;20308;-51
2023/08/04 06:47:08;;;;;;;4.50;3.90;;;16.00;99.90;;;;;;5116469;28;20258;-51
2023/08/04 06:49:34;;;;;;;5.60;4.00;;;16.00;99.90;;;;;;5116795;28;20173;-52
2023/08/04 06:52:01;;;;;;;4.32;3.60;;;16.00;99.90;;;;;;5116753;28;20180;-48
2023/08/04 06:54:26;;;;;;;4.07;3.00;;;16.20;99.90;;;;;;5116610;28;20302;-47
2023/08/04 06:56:52;;;;;;;3.83;3.35;;;16.30;99.90;;;;;;5116585;28;20623;-52
2023/08/04 06:59:18;;;;;;;4.40;3.30;;;16.30;99.90;;;;;;5116291;28;20260;-53
2023/08/04 07:01:43;;;;;;;5.13;3.13;;;16.30;99.90;;;;;;5116249;28;20173;-52
2023/08/04 07:04:09;;;;;;;4.35;3.30;;;16.40;99.90;;;;;;5116495;28;20173;-50
2023/08/04 07:06:34;;;;;;;3.72;3.10;;;16.40;99.90;;;;;;5116126;28;20181;-47
2023/08/04 07:09:00;;;;;;;8.10;3.35;;;16.30;99.90;;;;;;5116487;28;20178;-51
2023/08/04 07:11:26;;;;;;;5.05;3.40;;;16.20;99.90;;;;;;5116052;28;20227;-49
2023/08/04 07:13:51;;;;;;;4.88;3.05;;;16.10;99.90;;;;;;5116324;28;20170;-51
2023/08/04 07:16:17;;;;;;;4.50;3.03;;;16.10;99.90;;;;;;5116222;28;20604;-49
2023/08/04 07:18:43;;;;;;;3.42;2.70;;;16.00;99.90;;;;;;5116059;28;20224;-49
2023/08/04 07:21:11;;;;;;;5.38;3.40;;;16.00;99.90;;;;;;5116227;28;20215;-53
2023/08/04 07:23:38;;;;;;;3.67;3.28;;;16.00;99.90;;;;;;5116025;28;20173;-50
2023/08/04 07:26:04;;;;;;;5.40;3.20;;;15.90;99.90;;;;;;5116100;28;20177;-53
2023/08/04 07:28:34;;;;;;;5.65;3.30;;;16.00;99.90;;;;;;5115832;28;20180;-51
2023/08/04 07:31:17;;;;;;;3.90;3.20;;;16.00;99.90;;;;;;5109128;28;20205;-52
2023/08/04 07:33:43;;;;;;;4.90;3.28;;;16.10;99.90;;;;;;5113573;28;20649;-55
2023/08/04 07:36:09;;;;;;;5.50;3.97;;;16.20;99.90;;;;;;5111228;28;20246;-53
2023/08/04 07:38:34;;;;;;;4.38;3.80;;;16.40;99.90;;;;;;5115768;28;20184;-49
2023/08/04 07:41:00;;;;;;;6.20;3.90;;;16.40;99.90;;;;;;5115706;28;20170;-49
2023/08/04 07:43:26;;;;;;;4.10;3.70;;;16.50;99.90;;;;;;5115690;28;20177;-51
2023/08/04 07:45:53;;;;;;;3.92;3.53;;;16.50;99.90;;;;;;5115620;28;20189;-47
2023/08/04 07:48:19;;;;;;;4.45;3.80;;;16.60;99.90;;;;;;5114475;28;20205;-48
2023/08/04 07:50:47;;;;;;;4.03;3.50;;;16.60;99.90;;;;;;5114310;28;20189;-52
2023/08/04 07:53:13;;;;;;;4.43;3.50;;;16.60;99.90;;;;;;5115407;28;20169;-48
2023/08/04 07:55:39;;;;;;;6.63;4.00;;;16.60;99.90;;;;;;5115428;28;20208;-53
2023/08/04 07:58:08;;;;;;;3.53;3.22;;;16.80;99.90;;;;;;5115317;28;20193;-51
2023/08/04 08:00:35;;;;;;;4.47;3.80;;;16.80;99.90;;;;;;5115415;28;20264;-49
2023/08/04 08:03:01;;;;;;;4.72;3.55;;;16.90;99.90;;;;;;5115347;28;20177;-48
2023/08/04 08:05:26;;;;;;;4.22;3.78;;;17.00;99.90;;;;;;5114966;28;20181;-49
2023/08/04 08:07:52;;;;;;;6.88;4.20;;;16.90;99.90;;;;;;5115142;28;20169;-52
2023/08/04 08:10:18;;;;;;;6.38;3.95;;;16.90;99.90;;;;;;5115225;28;20169;-50
2023/08/04 08:12:44;;;;;;;5.30;4.50;;;17.00;99.90;;;;;;5115123;28;20177;-52
2023/08/04 08:15:10;;;;;;;6.82;4.18;;;17.10;99.90;;;;;;5114984;28;20212;-53
2023/08/04 08:17:37;;;;;;;6.70;4.20;;;17.20;99.90;;;;;;5114943;28;20229;-51
2023/08/04 08:20:04;;;;;;;4.45;4.05;;;17.30;99.90;;;;;;5114535;28;20225;-50
2023/08/04 08:22:30;;;;;;;4.88;4.03;;;17.20;99.90;;;;;;5114586;28;20657;-49
2023/08/04 08:24:56;;;;;;;6.25;3.78;;;17.10;99.90;;;;;;5114914;28;20177;-47
2023/08/04 08:27:23;;;;;;;4.30;3.70;;;17.40;99.90;;;;;;5114891;28;20169;-50
2023/08/04 08:29:53;;;;;;;4.22;3.55;;;17.50;99.90;;;;;;5108239;28;20172;-49
2023/08/04 08:32:18;;;;;;;6.70;3.38;;;17.70;99.90;;;;;;5114780;28;20176;-47
2023/08/04 08:34:44;;;;;;;3.13;2.83;;;17.50;99.90;;;;;;5114699;28;20209;-48
2023/08/04 08:37:10;;;;;;;8.90;3.45;;;17.60;99.90;;;;;;5114693;28;20169;-51
2023/08/04 08:39:36;;;;;;;5.70;3.22;;;17.80;99.90;;;;;;5114554;28;20572;-50
2023/08/04 08:42:02;;;;;;;5.45;2.80;;;18.00;99.90;;;;;;5114646;28;20181;-47
2023/08/04 08:44:28;;;;;;;6.43;2.92;;;18.30;99.90;;;;;;5114728;28;20209;-49
2023/08/04 08:46:54;;;;;;;5.72;3.08;;;18.50;99.90;;;;;;5114565;28;20173;-48
2023/08/04 08:49:26;;;;;;;4.20;2.50;;;18.60;99.90;;;;;;5114419;28;20569;-47
2023/08/04 08:51:55;;;;;;;5.15;2.70;;;18.70;99.90;;;;;;5110189;28;20368;-52
2023/08/04 08:54:22;;;;;;;8.77;2.92;;;18.80;99.90;;;;;;5112510;28;20189;-53
2023/08/04 08:56:50;;;;;;;6.50;2.33;;;18.70;99.90;;;;;;5114396;28;20205;-50
2023/08/04 08:59:16;;;;;;;3.70;2.20;;;18.80;99.90;;;;;;5114580;28;20185;-51
2023/08/04 09:01:42;;;;;;;5.47;2.28;;;18.80;99.90;;;;;;5114279;28;20607;-50
2023/08/04 09:04:08;;;;;;;3.65;2.30;;;19.00;99.90;;;;;;5114131;28;20236;-49
2023/08/04 09:06:33;;;;;;;6.18;2.13;;;18.90;99.90;;;;;;5114142;28;20192;-47
2023/08/04 09:09:01;;;;;;;3.90;2.08;;;18.60;99.90;;;;;;5113823;28;20649;-50
2023/08/04 09:11:29;;;;;;;4.85;2.40;;;18.30;99.90;;;;;;5114094;28;20180;-48
2023/08/04 09:13:57;;;;;;;4.75;2.30;;;18.20;99.90;;;;;;5113494;28;20260;-51
2023/08/04 09:16:33;;;;;;;3.42;2.08;;;18.10;99.90;;;;;;5113349;28;20216;-52
2023/08/04 09:19:06;;;;;;;3.58;2.25;;;18.00;99.90;;;;;;5110472;28;20223;-53
2023/08/04 09:21:32;;;;;;;4.10;2.05;;;17.90;99.90;;;;;;5113285;28;20687;-50
2023/08/04 09:23:58;;;;;;;4.38;2.08;;;17.80;99.90;;;;;;5113630;28;20177;-52
2023/08/04 09:26:24;;;;;;;3.47;1.83;;;18.00;99.90;;;;;;5113961;28;20260;-49
2023/08/04 09:29:10;;;;;;;3.33;2.10;;;18.00;99.90;;;;;;5113805;28;20184;-49
2023/08/04 09:31:41;;;;;;;4.00;2.15;;;18.40;99.90;;;;;;5113708;28;20169;-48
2023/08/04 09:34:08;;;;;;;2.78;2.20;;;18.60;99.90;;;;;;5113465;28;20192;-51
2023/08/04 09:36:48;;;;;;;3.53;2.05;;;18.70;99.90;;;;;;5113740;28;20201;-53
2023/08/04 09:39:15;;;;;;;3.55;1.80;;;18.40;99.90;;;;;;5113921;28;20259;-50
2023/08/04 09:41:47;;;;;;;3.20;1.88;;;18.40;99.90;;;;;;5113700;28;20184;-49
2023/08/04 09:44:14;;;;;;;3.45;1.73;;;18.30;99.90;;;;;;5113798;28;20170;-52
2023/08/04 09:46:49;;;;;;;3.42;1.65;;;18.10;99.90;;;;;;5113680;28;20629;-48
2023/08/04 09:49:14;;;;;;;2.97;1.70;;;17.90;99.90;;;;;;5113933;28;20157;-48
2023/08/04 09:51:43;;;;;;;6.18;1.98;;;17.90;99.90;;;;;;5113639;28;20183;-49
2023/08/04 09:54:10;;;;;;;3.78;2.00;;;18.00;99.90;;;;;;5113676;28;20166;-47
2023/08/04 09:56:36;;;;;;;3.25;2.00;;;18.30;99.90;;;;;;5113585;28;20203;-52
2023/08/04 09:59:02;;;;;;;4.10;1.83;;;18.30;99.90;;;;;;5113901;28;20181;-51
2023/08/04 10:01:29;;;;;;;4.05;1.60;;;18.50;99.90;;;;;;5113824;28;20177;-48
2023/08/04 10:03:57;;;;;;;2.28;1.40;;;18.20;99.90;;;;;;5113676;28;20169;-51
2023/08/04 10:06:23;;;;;;;2.10;1.55;;;18.20;99.90;;;;;;5113586;28;20188;-51
2023/08/04 10:08:50;;;;;;;5.60;1.88;;;18.20;99.90;;;;;;5113438;28;20305;-50
2023/08/04 10:11:16;;;;;;;2.28;1.50;;;18.10;99.90;;;;;;5113531;28;20193;-48
2023/08/04 10:13:45;;;;;;;2.03;1.52;;;18.30;99.90;;;;;;5113360;28;20270;-48
2023/08/04 10:16:13;;;;;;;1.92;1.40;;;18.30;99.90;;;;;;5114021;28;20197;-51
2023/08/04 10:18:49;;;;;;;14.90;1.95;;;18.30;99.90;;;;;;5117078;28;20217;-51
2023/08/04 10:21:18;;;;;;;3.15;1.73;;;18.30;99.90;;;;;;5117444;28;20716;-50
2023/08/04 10:23:44;;;;;;;3.72;1.73;;;18.20;99.90;;;;;;5117375;28;20165;-50
2023/08/04 10:26:13;;;;;;;1.85;1.40;;;18.20;99.90;;;;;;5117253;28;20185;-51
2023/08/04 10:29:01;;;;;;;3.55;1.40;;;18.00;99.90;;;;;;5117187;28;20188;-49
2023/08/04 10:31:42;;;;;;;4.28;1.50;;;17.90;99.90;;;;;;5117165;28;20176;-51
2023/08/04 10:34:25;;;;;;;4.63;1.40;;;18.00;99.90;;;;;;5117142;28;20174;-51
2023/08/04 10:37:09;;;;;;;2.83;1.27;;;18.10;99.90;;;;;;5117079;28;20218;-52
2023/08/04 10:39:36;;;;;;;2.95;1.50;;;18.50;99.90;;;;;;5116962;28;20203;-51
2023/08/04 10:42:06;;;;;;;3.65;1.40;;;18.70;99.90;;;;;;5116923;28;20173;-49
2023/08/04 10:44:49;;;;;;;2.72;1.23;;;18.70;99.90;;;;;;5116986;28;20161;-51
2023/08/04 10:47:27;;;;;;;3.60;1.52;;;18.70;99.90;;;;;;5115566;28;20169;-52
2023/08/04 10:49:53;;;;;;;3.63;1.40;;;18.60;99.90;;;;;;5116484;28;20310;-48
2023/08/04 10:52:19;;;;;;;2.80;1.40;;;18.60;99.90;;;;;;5116974;28;20169;-53
2023/08/04 10:54:45;;;;;;;5.03;1.70;;;18.70;99.90;;;;;;5116612;28;20223;-52
2023/08/04 10:57:18;;;;;;;2.03;1.30;;;19.10;99.90;;;;;;5116863;28;20170;-50
2023/08/04 10:59:44;;;;;;;1.70;1.15;;;19.50;99.90;;;;;;5116636;28;20625;-52
2023/08/04 11:02:09;;;;;;;2.45;1.27;;;19.90;99.90;;;;;;5116251;28;20173;-53
2023/08/04 11:04:40;;;;;;;2.42;1.25;;;20.00;99.90;;;;;;5116490;28;20172;-53
2023/08/04 11:07:06;;;;;;;3.67;1.25;;;19.60;99.90;;;;;;5116417;28;20653;-51
2023/08/04 11:09:32;;;;;;;2.15;1.10;;;19.00;99.90;;;;;;5116439;28;20197;-49
2023/08/04 11:11:59;;;;;;;1.90;1.10;;;18.80;99.90;;;;;;5116331;28;20573;-52
2023/08/04 11:14:25;;;;;;;2.55;1.23;;;18.60;99.90;;;;;;5116241;28;20169;-51
2023/08/04 11:16:50;;;;;;;2.38;1.25;;;18.50;99.90;;;;;;5116289;28;20518;-50
2023/08/04 11:19:20;;;;;;;2.10;1.40;;;18.40;99.90;;;;;;5115819;28;20225;-53
2023/08/04 11:21:46;;;;;;;1.90;1.20;;;18.20;99.90;;;;;;5116101;28;20681;-53
2023/08/04 11:24:11;;;;;;;2.35;1.25;;;18.30;99.90;;;;;;5116053;28;20257;-50
2023/08/04 11:26:37;;;;;;;1.67;1.20;;;18.50;99.90;;;;;;5115810;28;20170;-51
2023/08/04 11:29:04;;;;;;;2.92;1.30;;;19.10;99.90;;;;;;5115262;28;20177;-53
2023/08/04 11:31:32;;;;;;;2.75;1.30;;;19.60;99.90;;;;;;5114668;28;20709;-51
2023/08/04 11:33:58;;;;;;;3.20;1.50;;;20.00;99.90;;;;;;5115946;28;20263;-56
2023/08/04 11:36:24;;;;;;;2.47;1.20;;;19.90;99.90;;;;;;5115874;28;20756;-50
2023/08/04 11:38:49;;;;;;;1.95;1.38;;;19.30;99.90;;;;;;5115843;28;20169;-48
2023/08/04 11:41:16;;;;;;;2.10;1.40;;;19.00;99.90;;;;;;5115717;28;20177;-51
2023/08/04 11:43:44;;;;;;;2.17;1.13;;;19.20;99.90;;;;;;5115649;28;20173;-50
2023/08/04 11:46:09;;;;;;;2.45;1.33;;;19.50;99.90;;;;;;5115660;28;20173;-47
2023/08/04 11:48:38;;;;;;;3.78;1.27;;;19.60;99.90;;;;;;5115594;28;20285;-52
2023/08/04 11:51:08;;;;;;;2.10;1.50;;;19.90;99.90;;;;;;5115694;28;20276;-47
2023/08/04 11:53:34;;;;;;;2.65;1.20;;;20.30;99.90;;;;;;5115519;28;20169;-50
2023/08/04 11:56:02;;;;;;;1.33;1.10;;;20.30;99.90;;;;;;5115440;28;20284;-52
2023/08/04 11:58:55;;;;;;;2.53;1.10;;;20.10;99.90;;;;;;5115472;28;20176;-52
2023/08/04 12:01:30;;;;;;;1.88;1.20;;;20.00;99.90;;;;;;5112664;28;20672;-51
2023/08/04 12:03:56;;;;;;;1.48;1.20;;;20.10;99.90;;;;;;5115325;28;20187;-48
2023/08/04 12:06:23;;;;;;;4.00;1.38;;;20.30;99.90;;;;;;5115567;28;20294;-48
2023/08/04 12:08:53;;;;;;;2.05;1.17;;;20.40;99.90;;;;;;5115185;28;20618;-53
2023/08/04 12:11:20;;;;;;;4.03;1.92;;;20.50;99.90;;;;;;5115082;28;20216;-52
2023/08/04 12:13:46;;;;;;;3.58;1.48;;;20.20;99.90;;;;;;5115058;28;20549;-51
2023/08/04 12:16:13;;;;;;;3.38;1.55;;;19.90;99.90;;;;;;5115042;28;20205;-48
2023/08/04 12:18:41;;;;;;;5.53;1.85;;;19.60;99.90;;;;;;5114553;28;20736;-53
2023/08/04 12:21:10;;;;;;;3.55;1.95;;;19.80;99.90;;;;;;5115089;28;20203;-53
2023/08/04 12:23:37;;;;;;;3.55;1.67;;;20.20;99.90;;;;;;5114648;28;20197;-50
2023/08/04 12:26:02;;;;;;;4.28;1.67;;;20.60;99.90;;;;;;5114957;28;20256;-50
2023/08/04 12:28:28;;;;;;;1.75;1.30;;;20.70;99.90;;;;;;5114890;28;20212;-48
2023/08/04 12:30:54;;;;;;;1.42;1.13;;;20.70;99.90;;;;;;5114851;28;20360;-50
2023/08/04 12:33:19;;;;;;;2.85;1.52;;;20.60;99.90;;;;;;5114466;28;20184;-49
2023/08/04 12:35:45;;;;;;;3.72;1.55;;;20.20;99.90;;;;;;5114742;28;20236;-51
2023/08/04 12:38:12;;;;;;;2.15;1.50;;;20.20;99.90;;;;;;5113805;28;20201;-50
2023/08/04 12:40:38;;;;;;;2.60;1.30;;;20.50;99.90;;;;;;5113185;28;20181;-49
2023/08/04 12:43:04;;;;;;;2.95;1.52;;;20.90;99.90;;;;;;5113823;28;20168;-54